createdAt,value
2022-10-18T00:00:25.753Z,16.08
2022-10-18T00:02:53.395Z,16.08
2022-10-18T00:05:21.077Z,16.07
2022-10-18T00:07:48.714Z,16.06
2022-10-18T00:10:16.364Z,16.07
2022-10-18T00:12:44.236Z,16.07
2022-10-18T00:15:13.362Z,16.08
2022-10-18T00:17:41.218Z,16.06
2022-10-18T00:20:09.871Z,16.06
2022-10-18T00:22:38.892Z,16.05
2022-10-18T00:25:08.780Z,16.07
2022-10-18T00:27:36.512Z,16.06
2022-10-18T00:30:04.742Z,16.06
2022-10-18T00:32:37.539Z,16.05
2022-10-18T00:35:06.693Z,16.05
2022-10-18T00:37:34.933Z,16.05
2022-10-18T00:40:03.090Z,16.05
2022-10-18T00:42:33.996Z,16.05
2022-10-18T00:45:06.555Z,16.04
2022-10-18T00:47:36.826Z,16.05
2022-10-18T00:50:06.771Z,16.04
2022-10-18T00:52:37.612Z,16.03
2022-10-18T00:55:07.139Z,16.02
2022-10-18T00:57:35.262Z,16.02
2022-10-18T01:00:07.440Z,16.02
2022-10-18T01:02:37.292Z,16.01
2022-10-18T01:05:05.706Z,16.00
2022-10-18T01:07:51.002Z,16.00
2022-10-18T01:10:26.309Z,16.00
2022-10-18T01:13:09.963Z,15.97
2022-10-18T01:15:52.358Z,15.98
2022-10-18T01:18:26.899Z,15.99
2022-10-18T01:21:11.704Z,15.98
2022-10-18T01:24:19.225Z,15.98
2022-10-18T01:27:08.100Z,15.98
2022-10-18T01:29:51.875Z,15.95
2022-10-18T01:32:23.948Z,15.95
2022-10-18T01:34:57.183Z,15.95
2022-10-18T01:37:26.109Z,15.95
2022-10-18T01:39:59.467Z,15.95
2022-10-18T01:42:27.919Z,15.93
2022-10-18T01:44:56.456Z,15.93
2022-10-18T01:47:26.483Z,15.92
2022-10-18T01:49:59.366Z,15.93
2022-10-18T01:52:27.050Z,15.94
2022-10-18T01:54:56.416Z,15.93
2022-10-18T01:57:31.935Z,15.94
2022-10-18T02:00:03.877Z,15.93
2022-10-18T02:02:43.577Z,15.92
2022-10-18T02:05:18.019Z,15.93
2022-10-18T02:08:00.211Z,15.88
2022-10-18T02:10:42.812Z,15.92
2022-10-18T02:13:13.844Z,15.93
2022-10-18T02:15:45.451Z,15.92
2022-10-18T02:18:19.516Z,15.91
2022-10-18T02:20:49.426Z,15.91
2022-10-18T02:23:22.334Z,15.91
2022-10-18T02:25:50.164Z,15.91
2022-10-18T02:28:17.967Z,15.90
2022-10-18T02:30:52.857Z,15.90
2022-10-18T02:33:28.701Z,15.89
2022-10-18T02:36:02.110Z,15.90
2022-10-18T02:38:31.748Z,15.90
2022-10-18T02:41:00.015Z,15.89
2022-10-18T02:43:27.942Z,15.89
2022-10-18T02:45:55.894Z,15.88
2022-10-18T02:48:24.938Z,15.88
2022-10-18T02:50:52.606Z,15.84
2022-10-18T02:53:20.310Z,15.87
2022-10-18T02:55:48.031Z,15.87
2022-10-18T02:58:15.672Z,15.87
2022-10-18T03:00:43.286Z,15.83
2022-10-18T03:03:10.933Z,15.86
2022-10-18T03:05:39.900Z,15.85
2022-10-18T03:08:07.606Z,15.86
2022-10-18T03:10:35.241Z,15.85
2022-10-18T03:13:02.867Z,15.84
2022-10-18T03:15:30.489Z,15.84
2022-10-18T03:17:58.106Z,15.75
2022-10-18T03:20:25.722Z,15.82
2022-10-18T03:22:54.738Z,15.82
2022-10-18T03:25:22.403Z,15.81
2022-10-18T03:27:50.057Z,15.83
2022-10-18T03:30:17.998Z,15.82
2022-10-18T03:32:45.658Z,15.82
2022-10-18T03:35:13.326Z,15.81
2022-10-18T03:37:40.982Z,15.81
2022-10-18T03:40:11.016Z,15.80
2022-10-18T03:42:38.755Z,15.78
2022-10-18T03:45:07.577Z,15.81
2022-10-18T03:47:35.328Z,15.81
2022-10-18T03:50:03.022Z,15.80
2022-10-18T03:52:31.008Z,15.81
2022-10-18T03:54:58.953Z,15.79
2022-10-18T03:57:28.089Z,15.81
2022-10-18T03:59:55.735Z,15.81
2022-10-18T04:02:23.407Z,15.79
2022-10-18T04:04:51.040Z,15.81
2022-10-18T04:07:18.998Z,15.79
2022-10-18T04:09:46.698Z,15.80
2022-10-18T04:12:14.347Z,15.78
2022-10-18T04:14:43.420Z,15.79
2022-10-18T04:17:11.112Z,15.79
2022-10-18T04:19:38.769Z,15.78
2022-10-18T04:22:06.435Z,15.78
2022-10-18T04:24:34.076Z,15.78
2022-10-18T04:27:01.704Z,15.78
2022-10-18T04:29:29.319Z,15.77
2022-10-18T04:31:58.341Z,15.77
2022-10-18T04:34:25.999Z,15.77
2022-10-18T04:36:54.234Z,15.76
2022-10-18T04:39:21.917Z,15.76
2022-10-18T04:41:49.616Z,15.75
2022-10-18T04:44:17.438Z,15.75
2022-10-18T04:46:45.099Z,15.75
2022-10-18T04:49:14.509Z,15.74
2022-10-18T04:51:42.181Z,15.70
2022-10-18T04:54:09.831Z,15.74
2022-10-18T04:56:37.511Z,15.73
2022-10-18T04:59:05.162Z,15.72
2022-10-18T05:01:32.839Z,15.71
2022-10-18T05:04:00.563Z,15.71
2022-10-18T05:06:29.587Z,15.71
2022-10-18T05:08:57.286Z,15.70
2022-10-18T05:11:24.952Z,15.70
2022-10-18T05:13:52.771Z,15.69
2022-10-18T05:16:20.439Z,15.69
2022-10-18T05:18:48.170Z,15.68
2022-10-18T05:21:15.937Z,15.68
2022-10-18T05:23:44.879Z,15.68
2022-10-18T05:26:12.639Z,15.67
2022-10-18T05:28:41.325Z,15.66
2022-10-18T05:31:12.364Z,15.58
2022-10-18T05:33:40.240Z,15.66
2022-10-18T05:36:08.580Z,15.65
2022-10-18T05:38:38.842Z,15.65
2022-10-18T05:41:08.073Z,15.65
2022-10-18T05:43:35.768Z,15.65
2022-10-18T05:46:04.186Z,15.64
2022-10-18T05:48:31.972Z,15.63
2022-10-18T05:51:00.045Z,15.63
2022-10-18T05:53:42.940Z,15.63
2022-10-18T05:56:12.757Z,15.62
2022-10-18T05:58:41.540Z,15.62
2022-10-18T06:01:10.279Z,15.62
2022-10-18T06:03:37.977Z,15.62
2022-10-18T06:06:07.600Z,15.60
2022-10-18T06:08:36.514Z,15.62
2022-10-18T06:11:08.021Z,15.62
2022-10-18T06:13:41.054Z,15.61
2022-10-18T06:16:09.405Z,15.62
2022-10-18T06:18:37.159Z,15.62
2022-10-18T06:21:05.285Z,15.59
2022-10-18T06:23:32.935Z,15.61
2022-10-18T06:26:01.665Z,15.60
2022-10-18T06:28:30.376Z,15.59
2022-10-18T06:30:59.449Z,15.60
2022-10-18T06:33:27.410Z,15.60
2022-10-18T06:35:56.515Z,15.59
2022-10-18T06:38:24.263Z,15.58
2022-10-18T06:40:52.147Z,15.58
2022-10-18T06:43:21.393Z,15.58
2022-10-18T06:45:49.317Z,15.57
2022-10-18T06:50:56.910Z,15.57
2022-10-18T06:53:26.112Z,15.55
2022-10-18T06:55:54.146Z,15.55
2022-10-18T06:58:21.786Z,15.54
2022-10-18T07:00:49.427Z,15.53
2022-10-18T07:03:18.437Z,15.53
2022-10-18T07:05:46.116Z,15.52
2022-10-18T07:08:13.761Z,15.52
2022-10-18T07:10:41.464Z,15.51
2022-10-18T07:13:30.969Z,15.52
2022-10-18T07:16:05.606Z,15.51
2022-10-18T07:18:35.793Z,15.51
2022-10-18T07:21:04.920Z,15.50
2022-10-18T07:23:33.888Z,15.51
2022-10-18T07:26:01.960Z,15.50
2022-10-18T07:28:30.428Z,15.50
2022-10-18T07:31:01.206Z,15.48
2022-10-18T07:33:31.258Z,15.48
2022-10-18T07:36:03.492Z,15.49
2022-10-18T07:38:31.200Z,15.48
2022-10-18T07:40:59.449Z,15.48
2022-10-18T07:43:27.332Z,15.48
2022-10-18T07:45:55.707Z,15.47
2022-10-18T07:48:23.538Z,15.53
2022-10-18T07:50:51.323Z,15.65
2022-10-18T07:53:20.611Z,15.80
2022-10-18T07:55:48.286Z,15.92
2022-10-18T07:58:15.941Z,15.98
2022-10-18T08:00:44.299Z,15.98
2022-10-18T08:03:11.942Z,15.97
2022-10-18T08:05:39.588Z,15.92
2022-10-18T08:08:08.220Z,15.89
2022-10-18T08:10:37.583Z,15.84
2022-10-18T08:13:05.247Z,15.80
2022-10-18T08:15:32.989Z,15.79
2022-10-18T08:18:00.688Z,15.74
2022-10-18T08:20:31.129Z,15.74
2022-10-18T08:23:00.573Z,15.73
2022-10-18T08:25:28.925Z,15.71
2022-10-18T08:27:58.326Z,15.70
2022-10-18T08:30:26.069Z,15.69
2022-10-18T08:32:53.898Z,15.69
2022-10-18T08:35:21.591Z,15.66
2022-10-18T08:37:49.220Z,15.66
2022-10-18T08:40:17.414Z,15.66
2022-10-18T08:43:00.359Z,15.66
2022-10-18T08:45:41.561Z,15.65
2022-10-18T08:48:21.794Z,15.63
2022-10-18T08:50:51.986Z,15.65
2022-10-18T08:53:26.017Z,15.64
2022-10-18T08:55:58.864Z,15.63
2022-10-18T08:58:32.109Z,15.60
2022-10-18T09:01:08.707Z,15.59
2022-10-18T09:03:48.492Z,15.57
2022-10-18T09:06:24.080Z,15.59
2022-10-18T09:09:04.456Z,15.58
2022-10-18T09:11:51.686Z,15.58
2022-10-18T09:14:34.337Z,15.60
2022-10-18T09:17:15.841Z,15.59
2022-10-18T09:22:38.867Z,15.61
2022-10-18T09:25:17.292Z,15.63
2022-10-18T09:27:52.533Z,15.65
2022-10-18T09:30:30.562Z,15.65
2022-10-18T09:33:11.748Z,15.64
2022-10-18T09:35:44.843Z,15.65
2022-10-18T09:38:15.658Z,15.65
2022-10-18T09:40:52.901Z,15.67
2022-10-18T09:43:24.651Z,15.68
2022-10-18T09:45:55.576Z,15.69
2022-10-18T09:48:28.757Z,15.71
2022-10-18T09:51:00.147Z,15.72
2022-10-18T09:53:36.954Z,15.73
2022-10-18T09:56:08.151Z,15.75
2022-10-18T09:58:44.086Z,15.77
2022-10-18T10:01:15.338Z,15.77
2022-10-18T10:03:44.384Z,15.79
2022-10-18T10:06:24.697Z,15.80
2022-10-18T10:08:58.850Z,15.80
2022-10-18T10:11:35.623Z,15.80
2022-10-18T10:14:11.625Z,15.86
2022-10-18T10:16:52.554Z,15.83
2022-10-18T10:19:25.642Z,15.88
2022-10-18T10:21:58.075Z,15.86
2022-10-18T10:24:31.291Z,15.92
2022-10-18T10:27:05.469Z,15.94
2022-10-18T10:29:53.888Z,15.95
2022-10-18T10:32:23.816Z,15.99
2022-10-18T10:34:53.182Z,16.00
2022-10-18T10:37:30.208Z,16.02
2022-10-18T10:40:21.849Z,16.04
2022-10-18T10:43:18.368Z,16.06
2022-10-18T10:45:59.134Z,16.08
2022-10-18T10:48:31.137Z,16.08
2022-10-18T10:51:06.075Z,16.08
2022-10-18T10:53:38.841Z,16.13
2022-10-18T10:56:07.968Z,16.15
2022-10-18T10:58:38.991Z,16.17
2022-10-18T11:01:25.561Z,16.18
2022-10-18T11:03:55.649Z,16.21
2022-10-18T11:06:51.223Z,16.15
2022-10-18T11:09:34.944Z,16.24
2022-10-18T11:12:09.291Z,16.27
2022-10-18T11:14:42.613Z,16.31
2022-10-18T11:21:00.970Z,16.36
2022-10-18T11:23:33.411Z,16.38
2022-10-18T11:26:21.906Z,16.41
2022-10-18T11:29:23.815Z,16.42
2022-10-18T11:32:01.630Z,16.44
2022-10-18T11:34:48.259Z,16.46
2022-10-18T11:37:34.719Z,16.47
2022-10-18T11:40:20.204Z,16.48
2022-10-18T11:42:57.793Z,16.49
2022-10-18T11:45:33.883Z,16.49
2022-10-18T11:48:11.978Z,16.53
2022-10-18T11:50:49.281Z,16.54
2022-10-18T11:53:25.668Z,16.58
2022-10-18T11:56:03.877Z,16.59
2022-10-18T11:58:45.643Z,16.62
2022-10-18T12:01:24.700Z,16.66
2022-10-18T12:04:02.974Z,16.68
2022-10-18T12:06:35.945Z,16.67
2022-10-18T12:09:09.317Z,16.66
2022-10-18T12:11:47.149Z,16.65
2022-10-18T12:14:23.678Z,16.65
2022-10-18T12:17:02.799Z,16.66
2022-10-18T12:19:41.853Z,16.67
2022-10-18T12:22:19.310Z,16.67
2022-10-18T12:24:47.038Z,16.68
2022-10-18T12:27:17.650Z,16.68
2022-10-18T12:29:51.526Z,16.70
2022-10-18T12:32:23.333Z,16.73
2022-10-18T12:34:54.061Z,16.74
2022-10-18T12:37:40.977Z,16.78
2022-10-18T12:40:18.796Z,16.79
2022-10-18T12:42:52.736Z,16.81
2022-10-18T12:45:30.174Z,16.78
2022-10-18T12:48:01.425Z,16.85
2022-10-18T12:50:35.908Z,16.86
2022-10-18T12:53:07.268Z,16.89
2022-10-18T12:55:37.584Z,16.87
2022-10-18T12:58:24.916Z,16.88
2022-10-18T13:01:05.632Z,16.89
2022-10-18T13:03:58.661Z,16.91
2022-10-18T13:06:26.475Z,16.92
2022-10-18T13:09:20.883Z,16.94
2022-10-18T13:11:49.081Z,16.95
2022-10-18T13:14:34.800Z,16.96
2022-10-18T13:17:11.963Z,16.96
2022-10-18T13:20:02.888Z,16.97
2022-10-18T13:22:51.732Z,16.97
2022-10-18T13:25:28.524Z,16.97
2022-10-18T13:28:01.919Z,16.98
2022-10-18T13:30:48.939Z,16.99
2022-10-18T13:33:39.047Z,17.01
2022-10-18T13:36:23.057Z,17.01
2022-10-18T13:39:03.129Z,17.02
2022-10-18T13:41:35.322Z,17.03
2022-10-18T13:44:25.759Z,17.01
2022-10-18T13:47:37.653Z,17.02
2022-10-18T13:50:27.912Z,17.02
2022-10-18T13:53:26.017Z,17.03
2022-10-18T13:56:09.621Z,17.04
2022-10-18T13:58:49.259Z,17.03
2022-10-18T14:01:42.685Z,17.03
2022-10-18T14:04:35.107Z,17.03
2022-10-18T14:07:05.993Z,17.01
2022-10-18T14:09:44.865Z,17.04
2022-10-18T14:12:22.530Z,17.03
2022-10-18T14:14:56.008Z,17.02
2022-10-18T14:17:31.383Z,17.02
2022-10-18T14:20:07.443Z,17.02
2022-10-18T14:22:41.978Z,17.03
2022-10-18T14:25:22.306Z,17.04
2022-10-18T14:27:53.678Z,17.06
2022-10-18T14:30:22.417Z,17.05
2022-10-18T14:32:52.716Z,17.01
2022-10-18T14:35:38.920Z,16.99
2022-10-18T14:38:14.598Z,16.98
2022-10-18T14:40:42.416Z,16.96
2022-10-18T14:43:13.589Z,16.95
2022-10-18T14:45:42.507Z,16.94
2022-10-18T14:48:16.345Z,16.93
2022-10-18T14:50:48.545Z,16.93
2022-10-18T14:53:20.980Z,16.92
2022-10-18T14:55:55.848Z,16.92
2022-10-18T14:58:23.895Z,16.92
2022-10-18T15:00:51.705Z,16.92
2022-10-18T15:03:19.762Z,16.93
2022-10-18T15:05:58.051Z,16.84
2022-10-18T15:08:27.975Z,16.93
2022-10-18T15:10:56.078Z,16.94
2022-10-18T15:13:25.132Z,16.96
2022-10-18T15:15:53.854Z,16.96
2022-10-18T15:18:24.120Z,16.95
2022-10-18T15:21:20.319Z,16.94
2022-10-18T15:23:47.988Z,16.95
2022-10-18T15:26:20.853Z,16.94
2022-10-18T15:28:53.161Z,16.93
2022-10-18T15:31:25.118Z,16.93
2022-10-18T15:33:53.551Z,16.93
2022-10-18T15:36:29.352Z,16.92
2022-10-18T15:39:08.921Z,16.93
2022-10-18T15:41:43.779Z,16.93
2022-10-18T15:44:22.087Z,16.91
2022-10-18T15:46:52.926Z,16.92
2022-10-18T15:49:52.499Z,16.91
2022-10-18T15:52:37.796Z,16.90
2022-10-18T15:55:53.532Z,16.89
2022-10-18T15:58:23.755Z,16.88
2022-10-18T16:00:52.953Z,16.88
2022-10-18T16:03:23.872Z,16.87
2022-10-18T16:05:53.243Z,16.87
2022-10-18T16:08:25.213Z,16.86
2022-10-18T16:10:53.148Z,16.86
2022-10-18T16:13:20.910Z,16.85
2022-10-18T16:15:48.750Z,16.85
2022-10-18T16:18:19.323Z,16.81
2022-10-18T16:20:48.706Z,16.83
2022-10-18T16:23:19.323Z,16.81
2022-10-18T16:25:48.729Z,16.80
2022-10-18T16:28:18.806Z,16.80
2022-10-18T16:30:48.304Z,16.79
2022-10-18T16:33:19.219Z,16.78
2022-10-18T16:35:49.429Z,16.78
2022-10-18T16:38:32.555Z,16.77
2022-10-18T16:41:05.719Z,16.75
2022-10-18T16:43:34.729Z,16.75
2022-10-18T16:46:03.724Z,16.74
2022-10-18T16:48:31.575Z,16.72
2022-10-18T16:50:59.711Z,16.71
2022-10-18T16:53:28.192Z,16.68
2022-10-18T16:55:58.339Z,16.69
2022-10-18T16:58:29.030Z,16.68
2022-10-18T17:00:57.153Z,16.66
2022-10-18T17:03:25.585Z,16.66
2022-10-18T17:05:53.574Z,16.65
2022-10-18T17:08:22.995Z,16.63
2022-10-18T17:10:52.910Z,16.58
2022-10-18T17:13:21.187Z,16.62
2022-10-18T17:15:50.898Z,16.61
2022-10-18T17:18:21.677Z,16.59
2022-10-18T17:20:50.409Z,16.59
2022-10-18T17:23:18.439Z,16.58
2022-10-18T17:25:59.056Z,16.58
2022-10-18T17:28:35.007Z,16.57
2022-10-18T17:31:07.003Z,16.50
2022-10-18T17:33:34.818Z,16.54
2022-10-18T17:36:02.720Z,16.54
2022-10-18T17:38:30.385Z,16.53
2022-10-18T17:40:58.060Z,16.52
2022-10-18T17:43:26.050Z,16.51
2022-10-18T17:45:56.703Z,16.49
2022-10-18T17:48:28.294Z,16.48
2022-10-18T17:50:56.098Z,16.47
2022-10-18T17:53:28.440Z,16.46
2022-10-18T17:56:02.462Z,16.46
2022-10-18T17:58:30.989Z,16.47
2022-10-18T18:00:58.760Z,16.48
2022-10-18T18:03:27.885Z,16.48
2022-10-18T18:05:55.709Z,16.47
2022-10-18T18:08:25.424Z,16.47
2022-10-18T18:10:55.503Z,16.43
2022-10-18T18:13:23.207Z,16.43
2022-10-18T18:15:50.942Z,16.43
2022-10-18T18:18:18.582Z,16.42
2022-10-18T18:20:55.023Z,16.42
2022-10-18T18:23:23.067Z,16.40
2022-10-18T18:25:56.339Z,16.42
2022-10-18T18:28:24.332Z,16.43
2022-10-18T18:30:52.005Z,16.43
2022-10-18T18:33:19.662Z,16.42
2022-10-18T18:35:57.171Z,16.42
2022-10-18T18:38:24.935Z,16.41
2022-10-18T18:41:04.092Z,16.38
2022-10-18T18:43:31.758Z,16.37
2022-10-18T18:45:59.523Z,16.36
2022-10-18T18:48:27.361Z,16.34
2022-10-18T18:50:56.524Z,16.34
2022-10-18T18:53:28.521Z,16.32
2022-10-18T18:56:02.431Z,16.30
2022-10-18T18:58:30.129Z,16.29
2022-10-18T19:00:57.860Z,16.28
2022-10-18T19:03:25.682Z,16.25
2022-10-18T19:06:04.680Z,16.26
2022-10-18T19:08:32.467Z,16.24
2022-10-18T19:11:00.189Z,16.23
2022-10-18T19:13:27.876Z,16.20
2022-10-18T19:16:28.216Z,16.18
2022-10-18T19:18:58.739Z,16.14
2022-10-18T19:21:30.163Z,16.15
2022-10-18T19:23:58.600Z,16.14
2022-10-18T19:26:30.261Z,16.12
2022-10-18T19:29:02.295Z,16.10
2022-10-18T19:31:30.294Z,16.09
2022-10-18T19:33:59.672Z,16.07
2022-10-18T19:36:29.439Z,16.06
2022-10-18T19:38:57.518Z,16.04
2022-10-18T19:43:58.528Z,16.01
2022-10-18T19:46:26.523Z,15.99
2022-10-18T19:48:54.896Z,15.97
2022-10-18T19:51:27.680Z,15.97
2022-10-18T19:53:57.981Z,15.95
2022-10-18T19:56:27.386Z,15.94
2022-10-18T19:58:55.302Z,15.94
2022-10-18T20:01:23.238Z,15.92
2022-10-18T20:03:51.038Z,15.91
2022-10-18T20:06:18.809Z,15.90
2022-10-18T20:08:46.780Z,15.89
2022-10-18T20:11:17.627Z,15.79
2022-10-18T20:13:45.563Z,15.85
2022-10-18T20:16:15.628Z,15.84
2022-10-18T20:18:44.158Z,15.84
2022-10-18T20:21:13.347Z,15.80
2022-10-18T20:23:42.615Z,15.79
2022-10-18T20:26:17.985Z,15.77
2022-10-18T20:28:55.897Z,15.76
2022-10-18T20:31:25.402Z,15.75
2022-10-18T20:33:56.167Z,15.73
2022-10-18T20:36:24.190Z,15.72
2022-10-18T20:38:53.048Z,15.71
2022-10-18T20:41:23.010Z,15.67
2022-10-18T20:43:56.998Z,15.68
2022-10-18T20:46:25.556Z,15.67
2022-10-18T20:48:54.306Z,15.66
2022-10-18T20:51:22.995Z,15.64
2022-10-18T20:53:51.132Z,15.59
2022-10-18T20:56:20.638Z,15.62
2022-10-18T20:58:50.476Z,15.58
2022-10-18T21:01:20.918Z,15.59
2022-10-18T21:03:50.458Z,15.57
2022-10-18T21:06:20.027Z,15.55
2022-10-18T21:08:47.928Z,15.54
2022-10-18T21:11:15.559Z,15.53
2022-10-18T21:13:43.240Z,15.52
2022-10-18T21:16:10.891Z,15.51
2022-10-18T21:18:40.383Z,15.49
2022-10-18T21:21:10.450Z,15.48
2022-10-18T21:23:38.189Z,15.46
2022-10-18T21:26:06.258Z,15.46
2022-10-18T21:28:34.241Z,15.45
2022-10-18T21:31:13.755Z,15.43
2022-10-18T21:33:43.462Z,15.39
2022-10-18T21:36:11.569Z,15.41
2022-10-18T21:38:39.897Z,15.41
2022-10-18T21:41:11.904Z,15.39
2022-10-18T21:43:41.827Z,15.37
2022-10-18T21:46:10.993Z,15.34
2022-10-18T21:48:39.500Z,15.34
2022-10-18T21:51:09.373Z,15.33
2022-10-18T21:53:37.335Z,15.32
2022-10-18T21:56:07.425Z,15.29
2022-10-18T21:58:35.987Z,15.29
2022-10-18T22:01:07.159Z,15.28
2022-10-18T22:03:34.878Z,15.27
2022-10-18T22:06:07.561Z,15.24
2022-10-18T22:08:37.032Z,15.23
2022-10-18T22:11:04.918Z,15.22
2022-10-18T22:13:32.826Z,15.21
2022-10-18T22:16:01.931Z,15.20
2022-10-18T22:18:29.802Z,15.18
2022-10-18T22:20:58.924Z,15.18
2022-10-18T22:23:32.330Z,15.15
2022-10-18T22:26:05.710Z,15.15
2022-10-18T22:28:33.413Z,15.14
2022-10-18T22:31:01.145Z,15.13
2022-10-18T22:33:29.327Z,15.11
2022-10-18T22:35:57.195Z,15.12
2022-10-18T22:38:25.162Z,15.11
2022-10-18T22:40:52.901Z,15.09
2022-10-18T22:43:21.900Z,15.09
2022-10-18T22:45:49.558Z,15.07
2022-10-18T22:48:17.235Z,15.06
2022-10-18T22:50:44.876Z,15.04
2022-10-18T22:53:12.563Z,15.03
2022-10-18T22:55:40.229Z,15.02
2022-10-18T22:58:07.917Z,15.02
2022-10-18T23:00:39.221Z,15.00
2022-10-18T23:03:07.046Z,14.99
2022-10-18T23:05:38.264Z,14.98
2022-10-18T23:08:06.195Z,14.97
2022-10-18T23:10:34.020Z,14.97
2022-10-18T23:13:02.106Z,14.95
2022-10-18T23:15:30.395Z,14.93
2022-10-18T23:17:59.689Z,14.93
2022-10-18T23:20:27.997Z,14.83
2022-10-18T23:22:55.673Z,14.90
2022-10-18T23:25:23.353Z,14.88
2022-10-18T23:27:51.016Z,14.85
2022-10-18T23:30:18.819Z,14.85
2022-10-18T23:32:46.460Z,14.84
2022-10-18T23:35:15.516Z,14.82
2022-10-18T23:37:43.141Z,14.80
2022-10-18T23:40:11.694Z,14.79
2022-10-18T23:42:39.409Z,14.78
2022-10-18T23:45:08.531Z,14.76
2022-10-18T23:47:36.361Z,14.75
2022-10-18T23:50:04.496Z,14.74
2022-10-18T23:52:33.506Z,14.72
2022-10-18T23:55:01.233Z,14.73
2022-10-18T23:57:28.893Z,14.70
2022-10-18T23:59:56.679Z,14.70
